Time;durP1;ratioP1;P1;durP2;ratioP2;P2;SDS_P1;SDS_P2;PMS_P1;PMS_P2;Temp;Humidity;BMP_temperature;BMP_pressure;BME280_temperature;BME280_humidity;BME280_pressure;Samples;Min_cycle;Max_cycle;Signal;HPM_P1;HPM_P2
2022/08/21 00:03:04;;;;;;;10.82;5.13;;;;;;;;;;10050688;28;20119;-72
2022/08/21 00:08:01;;;;;;;12.77;6.93;;;;;;;;;;10051613;28;20151;-69
2022/08/21 00:12:57;;;;;;;10.50;5.80;;;;;;;;;;10056252;28;20137;-69
2022/08/21 00:17:54;;;;;;;11.68;5.65;;;;;;;;;;10043579;28;20047;-69
2022/08/21 00:22:51;;;;;;;12.75;6.38;;;;;;;;;;10051438;28;20130;-69
2022/08/21 00:27:48;;;;;;;11.20;7.18;;;;;;;;;;10059894;28;20410;-71
2022/08/21 00:32:44;;;;;;;17.48;7.07;;;;;;;;;;10051911;28;20079;-71
2022/08/21 00:37:40;;;;;;;14.57;6.72;;;;;;;;;;10047935;29;20117;-70
2022/08/21 00:42:37;;;;;;;13.52;7.35;;;;;;;;;;10048766;28;20518;-69
2022/08/21 00:47:33;;;;;;;12.18;6.47;;;;;;;;;;10061434;28;20075;-69
2022/08/21 00:52:31;;;;;;;14.63;8.27;;;;;;;;;;10047647;28;20103;-70
2022/08/21 00:57:33;;;;;;;10.95;7.35;;;;;;;;;;10051099;28;20106;-70
2022/08/21 01:02:29;;;;;;;14.37;7.60;;;;;;;;;;10054070;28;20126;-71
2022/08/21 01:07:26;;;;;;;11.57;6.68;;;;;;;;;;10054982;28;20581;-70
2022/08/21 01:12:23;;;;;;;10.38;5.63;;;;;;;;;;10060635;28;20461;-70
2022/08/21 01:17:20;;;;;;;11.20;6.55;;;;;;;;;;10052810;28;20151;-70
2022/08/21 01:22:16;;;;;;;10.90;5.88;;;;;;;;;;10050203;28;20074;-70
2022/08/21 01:27:12;;;;;;;9.38;5.68;;;;;;;;;;10051605;28;20102;-70
2022/08/21 01:32:10;;;;;;;7.97;4.68;;;;;;;;;;10053612;28;20139;-71
2022/08/21 01:37:07;;;;;;;9.05;5.00;;;;;;;;;;10058945;28;20072;-71
2022/08/21 01:42:04;;;;;;;10.75;5.10;;;;;;;;;;10066506;28;20071;-71
2022/08/21 01:47:01;;;;;;;7.75;4.38;;;;;;;;;;10060920;28;20044;-71
2022/08/21 01:51:57;;;;;;;9.48;5.28;;;;;;;;;;10058933;28;20090;-71
2022/08/21 01:56:54;;;;;;;8.77;4.35;;;;;;;;;;10047957;28;20047;-70
2022/08/21 02:01:53;;;;;;;7.90;3.92;;;;;;;;;;10053341;28;20628;-71
2022/08/21 02:06:50;;;;;;;9.23;4.75;;;;;;;;;;10065411;28;20058;-70
2022/08/21 02:11:46;;;;;;;7.75;3.67;;;;;;;;;;10062250;28;20085;-70
2022/08/21 02:16:44;;;;;;;10.23;4.80;;;;;;;;;;10057696;28;20509;-69
2022/08/21 02:21:40;;;;;;;10.30;4.30;;;;;;;;;;10051666;28;20047;-69
2022/08/21 02:26:37;;;;;;;8.80;4.35;;;;;;;;;;10051232;28;20040;-71
2022/08/21 02:31:33;;;;;;;9.02;4.53;;;;;;;;;;10055337;28;20047;-71
2022/08/21 02:36:30;;;;;;;8.13;4.18;;;;;;;;;;10068401;28;20134;-70
2022/08/21 02:41:26;;;;;;;8.98;5.25;;;;;;;;;;10055970;28;20565;-69
2022/08/21 02:46:23;;;;;;;7.55;4.28;;;;;;;;;;10058378;28;20143;-71
2022/08/21 02:51:19;;;;;;;10.73;5.32;;;;;;;;;;10054347;28;20553;-70
2022/08/21 02:56:17;;;;;;;8.57;4.50;;;;;;;;;;10055693;28;20429;-71
2022/08/21 03:01:14;;;;;;;7.85;4.80;;;;;;;;;;10052804;28;20087;-71
2022/08/21 03:06:11;;;;;;;9.68;4.60;;;;;;;;;;10061321;28;20054;-71
2022/08/21 03:11:08;;;;;;;8.27;4.43;;;;;;;;;;10056498;28;20126;-71
2022/08/21 03:16:06;;;;;;;9.90;4.40;;;;;;;;;;10064830;28;20048;-71
2022/08/21 03:21:06;;;;;;;8.35;4.20;;;;;;;;;;10052881;28;20053;-71
2022/08/21 03:26:02;;;;;;;10.50;4.18;;;;;;;;;;10046664;28;20090;-71
2022/08/21 03:30:58;;;;;;;9.38;4.25;;;;;;;;;;10049978;28;20079;-71
2022/08/21 03:36:00;;;;;;;10.77;3.85;;;;;;;;;;10047259;28;20131;-71
2022/08/21 03:40:57;;;;;;;6.90;3.95;;;;;;;;;;10064585;28;20047;-71
2022/08/21 03:45:53;;;;;;;6.70;3.28;;;;;;;;;;10057071;28;20474;-69
2022/08/21 03:50:51;;;;;;;9.23;4.00;;;;;;;;;;10053436;28;20073;-69
2022/08/21 03:55:49;;;;;;;8.40;3.90;;;;;;;;;;10057333;28;20174;-69
2022/08/21 04:00:46;;;;;;;7.53;3.83;;;;;;;;;;10056746;28;20134;-69
2022/08/21 04:05:44;;;;;;;10.38;4.03;;;;;;;;;;10061493;28;20047;-70
2022/08/21 04:10:43;;;;;;;8.18;3.30;;;;;;;;;;10057952;28;20509;-70
2022/08/21 04:15:40;;;;;;;6.88;3.85;;;;;;;;;;10049589;28;20098;-70
2022/08/21 04:20:37;;;;;;;7.47;3.60;;;;;;;;;;10048297;28;20495;-70
2022/08/21 04:25:33;;;;;;;9.35;3.55;;;;;;;;;;10058266;28;20039;-70
2022/08/21 04:30:30;;;;;;;7.53;4.30;;;;;;;;;;10066519;28;20054;-70
2022/08/21 04:35:27;;;;;;;6.88;3.33;;;;;;;;;;10054284;28;20047;-71
2022/08/21 04:40:25;;;;;;;6.22;3.50;;;;;;;;;;10052893;28;20102;-71
2022/08/21 04:45:21;;;;;;;6.47;3.15;;;;;;;;;;10054195;28;20106;-71
2022/08/21 04:50:18;;;;;;;7.97;3.80;;;;;;;;;;10056320;28;20058;-72
2022/08/21 04:55:16;;;;;;;6.60;3.63;;;;;;;;;;10046707;28;20039;-72
2022/08/21 05:00:13;;;;;;;6.78;4.13;;;;;;;;;;10058209;28;20051;-72
2022/08/21 05:05:10;;;;;;;7.32;3.90;;;;;;;;;;10067446;28;20106;-71
2022/08/21 05:10:08;;;;;;;7.15;3.28;;;;;;;;;;10068957;28;20048;-72
2022/08/21 05:15:04;;;;;;;6.32;3.28;;;;;;;;;;10058383;28;20078;-71
2022/08/21 05:20:01;;;;;;;8.05;2.75;;;;;;;;;;10070360;28;20413;-72
2022/08/21 05:24:58;;;;;;;5.97;2.90;;;;;;;;;;10061611;28;20059;-71
2022/08/21 05:29:54;;;;;;;6.80;2.63;;;;;;;;;;10060375;28;20525;-70
2022/08/21 05:34:51;;;;;;;9.57;3.75;;;;;;;;;;10070581;28;20039;-70
2022/08/21 05:39:47;;;;;;;6.78;3.15;;;;;;;;;;10061823;28;20737;-70
2022/08/21 05:45:04;;;;;;;9.52;3.17;;;;;;;;;;10059122;28;20549;-69
2022/08/21 05:50:00;;;;;;;4.68;2.70;;;;;;;;;;10051294;28;20470;-72
2022/08/21 05:54:56;;;;;;;7.75;3.08;;;;;;;;;;10056731;29;20147;-71
2022/08/21 05:59:53;;;;;;;6.97;2.67;;;;;;;;;;10065056;28;20074;-71
2022/08/21 06:04:49;;;;;;;9.20;4.38;;;;;;;;;;10057445;28;20035;-71
2022/08/21 06:09:46;;;;;;;7.65;2.58;;;;;;;;;;10059747;28;20059;-71
2022/08/21 06:14:42;;;;;;;6.78;3.00;;;;;;;;;;10062987;28;20071;-71
2022/08/21 06:19:38;;;;;;;6.95;2.78;;;;;;;;;;10063334;28;20154;-70
2022/08/21 06:24:35;;;;;;;6.63;2.72;;;;;;;;;;10063672;28;21261;-71
2022/08/21 06:29:32;;;;;;;9.10;3.60;;;;;;;;;;10048006;28;20199;-70
2022/08/21 06:34:40;;;;;;;9.05;3.60;;;;;;;;;;10053129;28;20051;-70
2022/08/21 06:39:37;;;;;;;5.95;3.90;;;;;;;;;;10056053;28;20043;-70
2022/08/21 06:44:39;;;;;;;7.53;3.28;;;;;;;;;;10060235;28;20109;-70
2022/08/21 06:49:37;;;;;;;6.18;3.20;;;;;;;;;;10053707;28;20051;-73
2022/08/21 06:54:33;;;;;;;7.05;3.88;;;;;;;;;;10045308;28;20593;-70
2022/08/21 06:59:30;;;;;;;5.60;3.53;;;;;;;;;;10048243;28;20055;-70
2022/08/21 07:04:26;;;;;;;4.90;3.70;;;;;;;;;;10053853;28;20483;-70
2022/08/21 07:09:22;;;;;;;4.28;3.67;;;;;;;;;;10050333;28;20102;-71
2022/08/21 07:14:20;;;;;;;7.80;3.72;;;;;;;;;;10051873;28;20049;-72
2022/08/21 07:19:17;;;;;;;6.68;4.32;;;;;;;;;;10051052;28;20118;-72
2022/08/21 07:24:13;;;;;;;7.05;4.45;;;;;;;;;;10053780;28;20098;-72
2022/08/21 07:29:09;;;;;;;7.03;4.63;;;;;;;;;;10048893;28;20490;-72
2022/08/21 07:34:06;;;;;;;6.28;4.82;;;;;;;;;;10039170;28;20071;-72
2022/08/21 07:39:02;;;;;;;6.28;4.40;;;;;;;;;;10037173;28;20372;-72
2022/08/21 07:43:59;;;;;;;7.03;4.55;;;;;;;;;;10039041;28;20075;-72
2022/08/21 07:48:55;;;;;;;7.65;4.60;;;;;;;;;;10047999;28;20035;-72
2022/08/21 07:53:53;;;;;;;5.32;4.82;;;;;;;;;;10042448;28;20150;-72
2022/08/21 07:58:49;;;;;;;6.55;4.70;;;;;;;;;;10053982;28;20453;-72
2022/08/21 08:03:46;;;;;;;7.07;5.13;;;;;;;;;;10041940;28;20545;-71
2022/08/21 08:08:42;;;;;;;5.85;5.22;;;;;;;;;;10050131;28;20047;-71
2022/08/21 08:13:43;;;;;;;6.15;5.40;;;;;;;;;;10051220;28;20099;-72
2022/08/21 08:18:41;;;;;;;9.40;5.55;;;;;;;;;;10047996;28;20070;-71
2022/08/21 08:23:38;;;;;;;7.95;5.50;;;;;;;;;;10059998;28;20043;-72
2022/08/21 08:28:35;;;;;;;5.90;5.30;;;;;;;;;;10064945;28;20094;-72
2022/08/21 08:33:31;;;;;;;7.38;5.45;;;;;;;;;;10058573;28;20075;-72
2022/08/21 08:38:27;;;;;;;6.03;5.43;;;;;;;;;;10059251;28;20059;-71
2022/08/21 08:43:24;;;;;;;8.80;5.78;;;;;;;;;;10064119;28;20410;-71
2022/08/21 08:48:39;;;;;;;9.48;5.97;;;;;;;;;;10073425;28;20087;-71
2022/08/21 08:53:55;;;;;;;11.07;6.20;;;;;;;;;;10062445;28;20127;-72
2022/08/21 08:58:53;;;;;;;10.38;6.53;;;;;;;;;;10066664;28;20082;-72
2022/08/21 09:03:51;;;;;;;10.45;6.28;;;;;;;;;;10062421;28;20150;-72
2022/08/21 09:08:54;;;;;;;10.80;6.50;;;;;;;;;;10061653;28;20113;-72
2022/08/21 09:14:08;;;;;;;7.93;6.35;;;;;;;;;;10062451;28;20039;-71
2022/08/21 09:19:14;;;;;;;12.98;6.82;;;;;;;;;;10060470;28;20150;-69
2022/08/21 09:24:21;;;;;;;10.90;6.57;;;;;;;;;;10062228;28;20082;-69
2022/08/21 09:29:20;;;;;;;8.05;6.25;;;;;;;;;;10066056;28;20523;-69
2022/08/21 09:34:24;;;;;;;9.15;6.43;;;;;;;;;;10064288;28;20150;-69
2022/08/21 09:39:23;;;;;;;8.30;6.28;;;;;;;;;;10051935;28;20083;-69
2022/08/21 09:44:24;;;;;;;9.25;6.95;;;;;;;;;;10053398;28;20126;-70
2022/08/21 09:49:28;;;;;;;7.23;6.10;;;;;;;;;;10061539;28;20071;-70
2022/08/21 09:54:28;;;;;;;11.05;7.18;;;;;;;;;;10045288;28;20083;-69
2022/08/21 09:59:31;;;;;;;11.85;7.45;;;;;;;;;;10048540;28;20077;-69
2022/08/21 10:04:33;;;;;;;8.55;7.47;;;;;;;;;;10038407;28;20062;-70
2022/08/21 10:09:30;;;;;;;8.60;7.63;;;;;;;;;;10042622;28;20071;-70
2022/08/21 10:14:26;;;;;;;10.40;8.15;;;;;;;;;;10046358;28;20103;-70
2022/08/21 10:19:28;;;;;;;11.35;7.07;;;;;;;;;;10054829;28;20450;-68
2022/08/21 10:24:29;;;;;;;8.45;6.70;;;;;;;;;;10034988;28;20521;-68
2022/08/21 10:29:41;;;;;;;14.48;8.60;;;;;;;;;;10047569;28;20039;-70
2022/08/21 10:34:56;;;;;;;7.68;6.03;;;;;;;;;;10054566;28;20035;-67
2022/08/21 10:39:56;;;;;;;8.13;6.13;;;;;;;;;;10044659;28;20571;-67
2022/08/21 10:44:58;;;;;;;8.48;5.75;;;;;;;;;;10052745;28;20043;-67
2022/08/21 10:50:02;;;;;;;12.15;6.10;;;;;;;;;;10056962;28;20051;-67
2022/08/21 10:55:08;;;;;;;8.70;5.97;;;;;;;;;;10041731;28;20158;-68
2022/08/21 11:00:10;;;;;;;7.78;6.15;;;;;;;;;;10054192;28;20063;-68
2022/08/21 11:05:18;;;;;;;8.55;5.93;;;;;;;;;;10050780;28;20094;-69
2022/08/21 11:10:15;;;;;;;8.18;6.53;;;;;;;;;;10048765;28;20135;-67
2022/08/21 11:15:11;;;;;;;6.38;5.78;;;;;;;;;;10051332;28;20082;-67
2022/08/21 11:20:30;;;;;;;7.30;6.28;;;;;;;;;;10057210;28;20640;-67
2022/08/21 11:25:26;;;;;;;;;;;;;;;;;;10060895;28;20094;-68
2022/08/21 11:30:27;;;;;;;9.77;5.95;;;;;;;;;;10068000;28;19950;-69
2022/08/21 11:35:30;;;;;;;7.50;5.65;;;;;;;;;;10053539;28;20134;-69
2022/08/21 11:40:42;;;;;;;7.25;5.60;;;;;;;;;;10060903;28;20135;-67
2022/08/21 11:45:41;;;;;;;7.57;5.33;;;;;;;;;;10059104;28;20473;-67
2022/08/21 11:50:38;;;;;;;11.05;6.20;;;;;;;;;;10066056;28;20071;-69
2022/08/21 11:55:38;;;;;;;6.47;5.88;;;;;;;;;;10055446;28;20058;-69
2022/08/21 12:00:55;;;;;;;6.47;5.35;;;;;;;;;;10068533;28;20134;-69
2022/08/21 12:05:53;;;;;;;11.35;6.05;;;;;;;;;;10051584;28;20425;-69
2022/08/21 12:11:00;;;;;;;7.20;6.50;;;;;;;;;;10069593;28;20546;-69
2022/08/21 12:16:06;;;;;;;5.97;5.13;;;;;;;;;;10064207;28;20039;-69
2022/08/21 12:21:21;;;;;;;6.72;5.95;;;;;;;;;;10063978;28;20139;-69
2022/08/21 12:26:23;;;;;;;5.43;4.93;;;;;;;;;;10058899;28;20501;-69
2022/08/21 12:31:21;;;;;;;8.38;5.57;;;;;;;;;;10066470;28;20153;-69
2022/08/21 12:36:21;;;;;;;8.60;5.57;;;;;;;;;;10061300;28;20074;-69
2022/08/21 12:41:24;;;;;;;5.72;5.05;;;;;;;;;;10060496;28;20083;-69
2022/08/21 12:46:21;;;;;;;5.53;5.03;;;;;;;;;;10062481;28;20079;-69
2022/08/21 12:51:32;;;;;;;6.45;5.10;;;;;;;;;;10056427;28;20122;-69
2022/08/21 12:56:33;;;;;;;5.53;5.03;;;;;;;;;;10059892;28;20179;-69
2022/08/21 13:01:33;;;;;;;7.57;5.30;;;;;;;;;;10058217;28;20079;-69
2022/08/21 13:06:44;;;;;;;5.97;5.40;;;;;;;;;;10054756;28;20043;-69
2022/08/21 13:11:42;;;;;;;5.40;4.90;;;;;;;;;;10065734;28;20043;-67
2022/08/21 13:16:38;;;;;;;6.13;5.30;;;;;;;;;;10060829;28;20110;-69
2022/08/21 13:21:40;;;;;;;5.78;5.28;;;;;;;;;;10061614;28;20071;-69
2022/08/21 13:26:36;;;;;;;5.60;5.07;;;;;;;;;;10048518;28;20131;-69
2022/08/21 13:31:33;;;;;;;5.47;4.97;;;;;;;;;;10059879;28;20139;-69
2022/08/21 13:36:31;;;;;;;8.32;4.90;;;;;;;;;;10058952;28;20166;-69
2022/08/21 13:41:30;;;;;;;5.55;4.78;;;;;;;;;;10064320;28;20055;-67
2022/08/21 13:46:28;;;;;;;4.90;4.50;;;;;;;;;;10061807;28;20067;-66
2022/08/21 13:51:25;;;;;;;6.30;4.80;;;;;;;;;;10058325;28;20143;-69
2022/08/21 13:56:25;;;;;;;6.53;5.07;;;;;;;;;;10057552;28;20070;-69
2022/08/21 14:01:23;;;;;;;6.07;5.00;;;;;;;;;;10061910;28;20043;-69
2022/08/21 14:06:24;;;;;;;6.35;4.72;;;;;;;;;;10064905;28;20039;-69
2022/08/21 14:11:21;;;;;;;7.25;5.10;;;;;;;;;;10067675;28;20074;-68
2022/08/21 14:16:20;;;;;;;5.95;4.80;;;;;;;;;;10059167;28;20135;-69
2022/08/21 14:21:30;;;;;;;7.22;5.80;;;;;;;;;;10047620;28;20071;-69
2022/08/21 14:26:27;;;;;;;5.45;4.53;;;;;;;;;;10045144;28;20142;-70
2022/08/21 14:31:29;;;;;;;5.72;4.95;;;;;;;;;;10046463;28;20709;-69
2022/08/21 14:36:26;;;;;;;5.53;5.03;;;;;;;;;;10046065;28;20054;-68
2022/08/21 14:41:25;;;;;;;9.65;5.70;;;;;;;;;;10044291;28;20407;-68
2022/08/21 14:46:24;;;;;;;6.60;5.68;;;;;;;;;;10048592;28;20051;-69
2022/08/21 14:51:21;;;;;;;6.72;4.97;;;;;;;;;;10049021;28;20129;-68
2022/08/21 14:56:17;;;;;;;6.05;4.22;;;;;;;;;;10050196;28;20130;-68
2022/08/21 15:01:15;;;;;;;6.57;4.57;;;;;;;;;;10057190;28;20049;-68
2022/08/21 15:06:12;;;;;;;5.97;4.45;;;;;;;;;;10052509;28;20070;-68
2022/08/21 15:11:11;;;;;;;6.30;4.65;;;;;;;;;;10056268;28;20047;-69
2022/08/21 15:16:13;;;;;;;4.82;4.43;;;;;;;;;;10055652;28;20040;-68
2022/08/21 15:21:10;;;;;;;5.30;4.00;;;;;;;;;;10050259;28;20051;-68
2022/08/21 15:26:06;;;;;;;5.32;4.82;;;;;;;;;;10046331;28;20255;-69
2022/08/21 15:31:02;;;;;;;7.22;4.78;;;;;;;;;;10060005;28;20048;-69
2022/08/21 15:35:59;;;;;;;9.30;4.47;;;;;;;;;;10048014;28;20047;-68
2022/08/21 15:40:55;;;;;;;6.15;4.70;;;;;;;;;;10046516;28;20054;-68
2022/08/21 15:45:52;;;;;;;6.45;4.70;;;;;;;;;;10051375;28;20067;-69
2022/08/21 15:50:48;;;;;;;6.20;4.32;;;;;;;;;;10051360;28;20147;-69
2022/08/21 15:55:45;;;;;;;5.03;4.47;;;;;;;;;;10039869;28;20502;-69
2022/08/21 16:00:43;;;;;;;7.30;4.82;;;;;;;;;;10052782;28;20106;-69
2022/08/21 16:05:40;;;;;;;5.82;4.90;;;;;;;;;;10049631;28;20107;-68
2022/08/21 16:10:37;;;;;;;5.15;4.75;;;;;;;;;;10048943;28;20059;-68
2022/08/21 16:15:33;;;;;;;6.85;5.13;;;;;;;;;;10058891;28;20043;-68
2022/08/21 16:20:30;;;;;;;5.50;4.70;;;;;;;;;;10057314;28;20476;-67
2022/08/21 16:25:26;;;;;;;6.03;5.00;;;;;;;;;;10043991;28;20182;-68
2022/08/21 16:30:23;;;;;;;5.60;4.85;;;;;;;;;;10048432;28;20660;-68
2022/08/21 16:35:20;;;;;;;6.70;5.03;;;;;;;;;;10057416;28;20083;-69
2022/08/21 16:40:16;;;;;;;5.45;4.85;;;;;;;;;;10054337;28;20443;-68
2022/08/21 16:45:15;;;;;;;5.72;5.10;;;;;;;;;;10053502;28;20043;-69
2022/08/21 16:50:15;;;;;;;6.60;4.65;;;;;;;;;;10055258;28;20047;-69
2022/08/21 16:55:12;;;;;;;6.00;5.00;;;;;;;;;;10051571;28;20043;-69
2022/08/21 17:00:11;;;;;;;7.15;5.38;;;;;;;;;;10056247;28;20586;-69
2022/08/21 17:05:10;;;;;;;4.90;4.40;;;;;;;;;;10033423;28;20134;-67
2022/08/21 17:10:09;;;;;;;;;;;;;;;;;;10054048;28;20075;-67
2022/08/21 17:15:26;;;;;;;6.97;5.03;;;;;;;;;;10045731;28;20633;-67
2022/08/21 17:20:23;;;;;;;6.57;5.90;;;;;;;;;;10038152;28;20177;-68
2022/08/21 17:25:19;;;;;;;6.18;4.82;;;;;;;;;;10055559;28;20110;-68
2022/08/21 17:30:16;;;;;;;5.32;4.50;;;;;;;;;;10061860;28;20082;-67
2022/08/21 17:35:13;;;;;;;8.73;6.07;;;;;;;;;;10052969;28;20142;-67
2022/08/21 17:40:11;;;;;;;6.50;4.75;;;;;;;;;;10040191;28;20864;-67
2022/08/21 17:45:10;;;;;;;8.73;5.25;;;;;;;;;;10043808;28;20494;-67
2022/08/21 17:50:07;;;;;;;8.98;5.57;;;;;;;;;;10049052;28;20154;-68
2022/08/21 17:55:04;;;;;;;6.20;5.07;;;;;;;;;;10049274;28;20058;-68
2022/08/21 18:00:01;;;;;;;9.45;4.72;;;;;;;;;;10054258;28;20063;-68
2022/08/21 18:04:58;;;;;;;7.82;4.93;;;;;;;;;;10061601;28;20050;-67
2022/08/21 18:09:54;;;;;;;8.18;5.90;;;;;;;;;;10049419;28;20130;-68
2022/08/21 18:14:52;;;;;;;7.25;5.15;;;;;;;;;;10050743;28;20051;-69
2022/08/21 18:19:49;;;;;;;7.53;6.00;;;;;;;;;;10045317;28;20058;-67
2022/08/21 18:24:45;;;;;;;8.00;5.57;;;;;;;;;;10066274;28;20047;-67
2022/08/21 18:29:42;;;;;;;7.90;5.18;;;;;;;;;;10057492;28;20070;-67
2022/08/21 18:34:44;;;;;;;8.87;4.70;;;;;;;;;;10058662;28;20126;-67
2022/08/21 18:39:40;;;;;;;9.90;5.10;;;;;;;;;;10060523;28;20074;-67
2022/08/21 18:44:38;;;;;;;6.47;4.88;;;;;;;;;;10054869;28;20043;-67
2022/08/21 18:49:34;;;;;;;13.10;5.78;;;;;;;;;;10051384;28;20848;-67
2022/08/21 18:54:31;;;;;;;10.27;5.72;;;;;;;;;;10052838;28;20047;-67
2022/08/21 18:59:28;;;;;;;8.85;5.07;;;;;;;;;;10058828;28;20055;-67
2022/08/21 19:04:25;;;;;;;6.82;4.53;;;;;;;;;;10061135;28;20049;-67
2022/08/21 19:09:40;;;;;;;9.60;4.82;;;;;;;;;;10052490;28;20044;-67
2022/08/21 19:14:37;;;;;;;7.95;5.25;;;;;;;;;;10056368;28;20138;-67
2022/08/21 19:19:35;;;;;;;6.68;4.50;;;;;;;;;;10050265;28;20053;-67
2022/08/21 19:24:35;;;;;;;7.68;5.20;;;;;;;;;;10059757;28;20043;-67
2022/08/21 19:29:32;;;;;;;9.57;5.70;;;;;;;;;;10065208;28;20524;-68
2022/08/21 19:34:30;;;;;;;8.27;4.70;;;;;;;;;;10056539;29;20044;-67
2022/08/21 19:39:27;;;;;;;9.90;4.78;;;;;;;;;;10054271;28;20085;-67
2022/08/21 19:44:25;;;;;;;11.00;5.70;;;;;;;;;;10059578;28;20058;-67
2022/08/21 19:49:24;;;;;;;6.72;5.13;;;;;;;;;;10063612;28;20130;-67
2022/08/21 19:54:25;;;;;;;7.28;5.10;;;;;;;;;;10047795;28;20051;-67
2022/08/21 19:59:22;;;;;;;8.45;4.60;;;;;;;;;;10043272;28;20706;-67
2022/08/21 20:04:21;;;;;;;10.68;5.40;;;;;;;;;;10048067;28;20058;-69
2022/08/21 20:09:17;;;;;;;8.15;5.40;;;;;;;;;;10043829;28;20529;-69
2022/08/21 20:14:17;;;;;;;10.13;5.68;;;;;;;;;;10043245;28;20074;-66
2022/08/21 20:19:14;;;;;;;12.00;4.43;;;;;;;;;;10037981;28;20126;-69
2022/08/21 20:24:11;;;;;;;11.40;5.28;;;;;;;;;;10047210;28;20098;-68
2022/08/21 20:29:10;;;;;;;7.40;4.47;;;;;;;;;;10035749;28;20047;-69
2022/08/21 20:34:06;;;;;;;12.95;5.57;;;;;;;;;;10048739;28;20083;-69
2022/08/21 20:39:04;;;;;;;10.20;4.82;;;;;;;;;;10049262;28;20047;-69
2022/08/21 20:44:07;;;;;;;11.90;4.65;;;;;;;;;;10044897;28;20075;-69
2022/08/21 20:49:09;;;;;;;7.93;4.00;;;;;;;;;;10047211;28;20150;-69
2022/08/21 20:54:13;;;;;;;8.05;4.13;;;;;;;;;;10049009;28;20062;-69
2022/08/21 20:59:42;;;;;;;10.38;5.05;;;;;;;;;;10050733;28;20048;-69
2022/08/21 21:04:43;;;;;;;9.75;4.20;;;;;;;;;;10048762;29;20044;-69
2022/08/21 21:09:44;;;;;;;10.70;4.00;;;;;;;;;;10060166;28;20134;-69
2022/08/21 21:14:43;;;;;;;8.65;4.03;;;;;;;;;;10053666;28;20498;-69
2022/08/21 21:20:18;;;;;;;6.03;3.90;;;;;;;;;;10057362;28;20087;-69
2022/08/21 21:25:37;;;;;;;10.27;3.90;;;;;;;;;;10055650;28;20146;-69
2022/08/21 21:30:38;;;;;;;7.70;4.20;;;;;;;;;;10044442;28;20059;-69
2022/08/21 21:35:47;;;;;;;7.88;3.75;;;;;;;;;;10054159;28;20113;-69
2022/08/21 21:40:47;;;;;;;7.53;3.70;;;;;;;;;;10054193;28;20066;-69
2022/08/21 21:46:02;;;;;;;8.57;3.72;;;;;;;;;;10058609;28;20505;-69
2022/08/21 21:51:15;;;;;;;8.15;4.18;;;;;;;;;;10048960;28;20058;-68
2022/08/21 21:56:22;;;;;;;8.18;4.15;;;;;;;;;;10067288;28;20055;-68
2022/08/21 22:01:22;;;;;;;11.27;4.40;;;;;;;;;;10054103;28;20529;-69
2022/08/21 22:06:42;;;;;;;11.45;4.43;;;;;;;;;;10061366;28;20517;-69
2022/08/21 22:11:38;;;;;;;9.07;4.20;;;;;;;;;;10062996;28;20150;-68
2022/08/21 22:16:36;;;;;;;6.93;4.05;;;;;;;;;;10061138;28;20050;-70
2022/08/21 22:21:35;;;;;;;8.95;4.20;;;;;;;;;;10049565;28;20135;-69
2022/08/21 22:26:37;;;;;;;8.00;3.60;;;;;;;;;;10066067;28;20051;-69
2022/08/21 22:31:33;;;;;;;8.20;4.07;;;;;;;;;;10048940;28;20077;-69
2022/08/21 22:36:31;;;;;;;9.38;3.92;;;;;;;;;;10055165;28;20060;-69
2022/08/21 22:41:29;;;;;;;9.98;3.97;;;;;;;;;;10065481;28;20055;-69
2022/08/21 22:46:29;;;;;;;9.90;4.05;;;;;;;;;;10058476;28;20078;-69
2022/08/21 22:51:29;;;;;;;9.80;4.03;;;;;;;;;;10062960;28;20181;-69
2022/08/21 22:56:27;;;;;;;;;;;;;;;;;;10053287;28;20043;-68
2022/08/21 23:01:23;;;;;;;11.25;3.63;;;;;;;;;;10057514;28;19988;-68
2022/08/21 23:06:30;;;;;;;13.70;4.38;;;;;;;;;;10056450;28;20122;-69
2022/08/21 23:11:35;;;;;;;6.65;3.58;;;;;;;;;;10063523;28;20081;-69
2022/08/21 23:16:31;;;;;;;9.52;3.90;;;;;;;;;;10059252;28;20079;-69
2022/08/21 23:21:31;;;;;;;12.52;4.28;;;;;;;;;;10056605;28;20126;-68
2022/08/21 23:26:32;;;;;;;12.77;3.90;;;;;;;;;;10058885;28;20043;-67
2022/08/21 23:31:42;;;;;;;9.55;3.33;;;;;;;;;;10068376;28;20437;-67
2022/08/21 23:42:21;;;;;;;6.93;3.00;;;;;;;;;;10051376;28;20047;-67
2022/08/21 23:47:36;;;;;;;7.60;3.33;;;;;;;;;;10047059;28;20052;-69
2022/08/21 23:52:40;;;;;;;8.10;3.67;;;;;;;;;;10062158;28;20046;-69
2022/08/21 23:57:49;;;;;;;7.00;3.33;;;;;;;;;;10051676;28;20561;-69
